This is the latest recevied weather packets stored in our database for station/object WB8ZGM-13. If no packets are shown the sender has not sent any weather packets the latest 10 day(s).
| Time | Temp. | Humidity | Pressure | Rain* | Wind** | Luminosity | Snow |
|---|---|---|---|---|---|---|---|
| 1777907267 | 22.78° C | 56% | 996.7 hPa | 0 mm | - | - | - |
| 1777906337 | 22.22° C | 58% | 996.7 hPa | 0 mm | - | - | - |
| 1777905407 | 21.67° C | 59% | 996.9 hPa | 0 mm | - | - | - |
| 1777904507 | 21.11° C | 59% | 996.9 hPa | 0 mm | - | - | - |
| 1777903607 | 22.22° C | 56% | 997 hPa | 0 mm | - | - | - |
| 1777902707 | 21.11° C | 59% | 997.1 hPa | 0 mm | - | - | - |
| 1777901777 | 20° C | 61% | 997.3 hPa | 0 mm | - | - | - |
| 1777900847 | 18.89° C | 63% | 997.4 hPa | 0 mm | - | - | - |
| 1777899947 | 18.89° C | 64% | 997.3 hPa | 0 mm | - | - | - |
| 1777899046 | 17.78° C | 69% | 997.3 hPa | 0 mm | - | - | - |
| 1777898146 | 16.11° C | 73% | 997.2 hPa | 0 mm | - | - | - |
| 1777897246 | 14.44° C | 80% | 997.2 hPa | 0 mm | - | - | - |
| 1777896346 | 12.22° C | 87% | 997.1 hPa | 0 mm | - | - | - |
| 1777895446 | 10.56° C | 90% | 996.9 hPa | 0 mm | - | - | - |
| 1777894516 | 10.56° C | 89% | 996.8 hPa | 0 mm | - | - | - |
| 1777893586 | 10° C | 88% | 996.6 hPa | 0 mm | - | - | - |
| 1777892656 | 9.44° C | 90% | 996.4 hPa | 0 mm | - | - | - |
| 1777891726 | 9.44° C | 89% | 996.4 hPa | 0 mm | - | - | - |
| 1777890826 | 10° C | 88% | 996.5 hPa | 0 mm | - | - | - |
| 1777889896 | 10° C | 86% | 996.4 hPa | 0 mm | - | - | - |
| 1777888996 | 10.56° C | 84% | 996.4 hPa | 0 mm | - | - | - |
| 1777888066 | 10.56° C | 84% | 996.4 hPa | 0 mm | - | - | - |
| 1777887136 | 10.56° C | 84% | 996.5 hPa | 0 mm | - | - | - |
| 1777886206 | 10° C | 85% | 996.6 hPa | 0 mm | - | - | - |
| 1777885306 | 10° C | 85% | 996.7 hPa | 0 mm | - | - | - |
* Rain latest hour (hover to see other rain measurements)
** Current wind speed in m/s (hover to see current wind gust speed)